createdAt,value
2022-08-01T00:00:30.537Z,98.41
2022-08-01T00:01:30.529Z,98.31
2022-08-01T00:02:30.572Z,98.01
2022-08-01T00:03:30.489Z,97.50
2022-08-01T00:04:30.465Z,97.96
2022-08-01T00:05:30.508Z,98.66
2022-08-01T00:06:30.473Z,98.66
2022-08-01T00:07:30.448Z,99.31
2022-08-01T00:08:30.514Z,99.16
2022-08-01T00:09:30.418Z,99.01
2022-08-01T00:10:30.420Z,99.06
2022-08-01T00:11:30.760Z,99.51
2022-08-01T00:12:30.436Z,99.99
2022-08-01T00:13:30.384Z,99.99
2022-08-01T00:14:32.426Z,99.99
2022-08-01T00:15:30.350Z,99.96
2022-08-01T00:16:30.381Z,99.26
2022-08-01T00:17:30.330Z,99.56
2022-08-01T00:18:30.317Z,99.26
2022-08-01T00:19:30.310Z,98.91
2022-08-01T00:20:30.305Z,98.51
2022-08-01T00:21:30.357Z,98.41
2022-08-01T00:22:30.287Z,97.61
2022-08-01T00:23:30.331Z,98.56
2022-08-01T00:24:30.254Z,98.86
2022-08-01T00:25:33.474Z,98.76
2022-08-01T00:26:30.238Z,99.36
2022-08-01T00:27:30.226Z,98.81
2022-08-01T00:28:30.202Z,98.76
2022-08-01T00:30:12.165Z,99.46
2022-08-01T00:30:31.182Z,99.06
2022-08-01T00:31:30.170Z,99.91
2022-08-01T00:32:30.226Z,99.61
2022-08-01T00:33:30.154Z,99.26
2022-08-01T00:34:30.276Z,99.71
2022-08-01T00:35:30.127Z,99.96
2022-08-01T00:36:30.134Z,99.06
2022-08-01T00:37:30.114Z,99.26
2022-08-01T00:38:30.110Z,99.46
2022-08-01T00:39:30.091Z,99.11
2022-08-01T00:40:30.069Z,99.36
2022-08-01T00:41:30.050Z,99.46
2022-08-01T00:42:30.067Z,99.46
2022-08-01T00:43:30.122Z,99.26
2022-08-01T00:44:30.033Z,99.11
2022-08-01T00:45:30.009Z,98.81
2022-08-01T00:46:31.002Z,98.41
2022-08-01T00:47:29.982Z,98.31
2022-08-01T00:48:30.006Z,98.11
2022-08-01T00:49:30.099Z,98.31
2022-08-01T00:50:29.984Z,98.51
2022-08-01T00:51:29.966Z,98.16
2022-08-01T00:52:29.952Z,98.01
2022-08-01T00:53:50.649Z,98.41
2022-08-01T00:54:30.876Z,98.41
2022-08-01T00:55:29.911Z,98.36
2022-08-01T00:56:29.884Z,97.50
2022-08-01T00:58:03.453Z,97.61
2022-08-01T00:58:30.947Z,97.20
2022-08-01T00:59:29.866Z,97.16
2022-08-01T01:00:29.917Z,96.86
2022-08-01T01:01:39.608Z,96.56
2022-08-01T01:02:29.822Z,96.86
2022-08-01T01:03:56.318Z,96.66
2022-08-01T01:04:31.796Z,96.70
2022-08-01T01:05:30.610Z,96.56
2022-08-01T01:06:29.772Z,96.86
2022-08-01T01:07:29.762Z,96.86
2022-08-01T01:08:29.783Z,96.11
2022-08-01T01:09:29.731Z,96.11
2022-08-01T01:10:29.732Z,95.71
2022-08-01T01:11:29.719Z,96.31
2022-08-01T01:12:29.701Z,96.45
2022-08-01T01:13:29.734Z,96.26
2022-08-01T01:14:29.773Z,96.06
2022-08-01T01:15:29.650Z,96.06
2022-08-01T01:16:29.667Z,96.15
2022-08-01T01:17:50.387Z,96.36
2022-08-01T01:18:30.652Z,95.86
2022-08-01T01:19:29.627Z,95.81
2022-08-01T01:20:29.632Z,96.06
2022-08-01T01:21:29.592Z,95.71
2022-08-01T01:22:29.604Z,95.81
2022-08-01T01:23:29.599Z,96.21
2022-08-01T01:24:29.584Z,95.31
2022-08-01T01:25:29.552Z,95.61
2022-08-01T01:26:29.533Z,94.51
2022-08-01T01:27:29.577Z,95.10
2022-08-01T01:28:29.537Z,95.01
2022-08-01T01:29:29.468Z,94.90
2022-08-01T01:30:29.493Z,94.90
2022-08-01T01:31:29.488Z,95.51
2022-08-01T01:32:31.120Z,96.36
2022-08-01T01:33:29.465Z,95.55
2022-08-01T01:34:29.484Z,95.55
2022-08-01T01:35:29.731Z,95.75
2022-08-01T01:36:29.458Z,96.26
2022-08-01T01:37:29.420Z,95.55
2022-08-01T01:38:29.389Z,96.36
2022-08-01T01:39:29.441Z,96.45
2022-08-01T01:40:29.388Z,96.36
2022-08-01T01:41:29.361Z,96.31
2022-08-01T01:42:29.349Z,96.11
2022-08-01T01:43:33.714Z,96.11
2022-08-01T01:44:29.360Z,96.01
2022-08-01T01:45:29.329Z,96.21
2022-08-01T01:46:29.310Z,95.41
2022-08-01T01:47:29.321Z,95.01
2022-08-01T01:48:29.298Z,94.90
2022-08-01T01:49:29.337Z,95.10
2022-08-01T01:50:29.729Z,95.31
2022-08-01T01:51:29.321Z,95.01
2022-08-01T01:52:29.254Z,95.10
2022-08-01T01:53:29.237Z,94.71
2022-08-01T01:54:29.222Z,94.31
2022-08-01T01:55:29.256Z,94.20
2022-08-01T01:56:29.182Z,94.40
2022-08-01T01:57:29.230Z,94.51
2022-08-01T01:58:29.162Z,94.00
2022-08-01T01:59:29.169Z,94.06
2022-08-01T02:00:29.178Z,94.26
2022-08-01T02:01:58.806Z,94.56
2022-08-01T02:02:30.159Z,94.76
2022-08-01T02:03:29.144Z,94.56
2022-08-01T02:04:29.148Z,94.00
2022-08-01T02:05:29.136Z,94.10
2022-08-01T02:06:29.086Z,94.51
2022-08-01T02:07:29.729Z,94.95
2022-08-01T02:08:29.118Z,95.25
2022-08-01T02:09:29.183Z,96.26
2022-08-01T02:10:29.074Z,96.91
2022-08-01T02:11:29.070Z,97.00
2022-08-01T02:12:29.100Z,97.35
2022-08-01T02:13:29.064Z,98.66
2022-08-01T02:14:29.020Z,98.25
2022-08-01T02:15:28.992Z,98.51
2022-08-01T02:16:28.987Z,98.56
2022-08-01T02:17:28.963Z,98.01
2022-08-01T02:18:28.955Z,98.31
2022-08-01T02:19:29.067Z,97.41
2022-08-01T02:20:28.980Z,97.11
2022-08-01T02:21:30.900Z,97.00
2022-08-01T02:22:29.044Z,97.06
2022-08-01T02:23:29.756Z,96.60
2022-08-01T02:24:30.415Z,96.80
2022-08-01T02:25:28.996Z,96.76
2022-08-01T02:26:28.899Z,96.15
2022-08-01T02:27:29.709Z,96.20
2022-08-01T02:28:28.869Z,95.75
2022-08-01T02:29:28.889Z,96.15
2022-08-01T02:30:28.849Z,95.86
2022-08-01T02:31:28.944Z,96.06
2022-08-01T02:32:28.819Z,95.95
2022-08-01T02:33:29.798Z,95.80
2022-08-01T02:34:28.769Z,96.15
2022-08-01T02:35:28.811Z,96.26
2022-08-01T02:36:33.021Z,96.20
2022-08-01T02:37:28.733Z,96.06
2022-08-01T02:38:28.718Z,95.95
2022-08-01T02:39:28.734Z,96.15
2022-08-01T02:40:28.728Z,95.90
2022-08-01T02:41:28.952Z,96.15
2022-08-01T02:42:28.696Z,96.26
2022-08-01T02:43:28.666Z,95.15
2022-08-01T02:44:28.689Z,95.95
2022-08-01T02:45:28.693Z,95.45
2022-08-01T02:46:28.643Z,95.45
2022-08-01T02:47:28.642Z,94.95
2022-08-01T02:48:28.629Z,94.95
2022-08-01T02:49:28.652Z,95.15
2022-08-01T02:50:28.605Z,95.25
2022-08-01T02:51:28.577Z,95.65
2022-08-01T02:52:28.608Z,96.30
2022-08-01T02:53:39.016Z,96.00
2022-08-01T02:54:29.538Z,96.55
2022-08-01T02:55:28.522Z,97.55
2022-08-01T02:56:28.530Z,97.96
2022-08-01T02:57:36.142Z,98.71
2022-08-01T02:58:29.553Z,98.71
2022-08-01T02:59:28.493Z,98.91
2022-08-01T03:00:28.471Z,98.91
2022-08-01T03:01:29.280Z,99.41
2022-08-01T03:02:28.487Z,99.71
2022-08-01T03:03:28.458Z,99.31
2022-08-01T03:04:28.474Z,99.11
2022-08-01T03:05:28.419Z,99.51
2022-08-01T03:06:28.426Z,99.99
2022-08-01T03:07:34.278Z,99.91
2022-08-01T03:08:29.430Z,99.91
2022-08-01T03:09:28.391Z,99.99
2022-08-01T03:10:28.406Z,99.99
2022-08-01T03:11:28.399Z,99.91
2022-08-01T03:12:28.356Z,99.99
2022-08-01T03:13:28.362Z,99.81
2022-08-01T03:14:28.426Z,99.99
2022-08-01T03:15:29.268Z,99.99
2022-08-01T03:16:28.356Z,99.99
2022-08-01T03:17:28.316Z,99.99
2022-08-01T03:18:28.294Z,99.81
2022-08-01T03:19:28.269Z,99.99
2022-08-01T03:20:28.303Z,99.76
2022-08-01T03:21:28.241Z,99.66
2022-08-01T03:22:28.257Z,98.71
2022-08-01T03:23:37.550Z,99.11
2022-08-01T03:24:29.203Z,98.71
2022-08-01T03:25:28.207Z,98.51
2022-08-01T03:26:28.211Z,98.21
2022-08-01T03:27:28.171Z,98.01
2022-08-01T03:28:29.656Z,98.41
2022-08-01T03:29:28.224Z,98.41
2022-08-01T03:30:28.136Z,97.81
2022-08-01T03:31:28.184Z,98.11
2022-08-01T03:32:28.123Z,98.11
2022-08-01T03:33:28.124Z,97.81
2022-08-01T03:34:28.128Z,97.81
2022-08-01T03:35:28.180Z,97.35
2022-08-01T03:36:28.173Z,98.25
2022-08-01T03:37:28.108Z,98.05
2022-08-01T03:38:28.102Z,98.66
2022-08-01T03:39:28.140Z,98.66
2022-08-01T03:40:28.067Z,98.61
2022-08-01T03:41:28.076Z,98.41
2022-08-01T03:42:28.029Z,98.51
2022-08-01T03:43:28.009Z,98.31
2022-08-01T03:44:28.058Z,97.81
2022-08-01T03:45:28.060Z,97.31
2022-08-01T03:46:27.964Z,97.31
2022-08-01T03:47:28.052Z,97.41
2022-08-01T03:48:28.105Z,97.55
2022-08-01T03:49:28.034Z,97.11
2022-08-01T03:50:27.937Z,97.91
2022-08-01T03:51:27.950Z,97.41
2022-08-01T03:52:28.034Z,97.31
2022-08-01T03:53:27.909Z,97.71
2022-08-01T03:54:27.944Z,97.81
2022-08-01T03:55:28.629Z,97.61
2022-08-01T03:56:27.901Z,97.41
2022-08-01T03:57:36.085Z,97.41
2022-08-01T03:58:28.865Z,97.66
2022-08-01T03:59:27.970Z,97.81
2022-08-01T04:00:27.953Z,98.01
2022-08-01T04:01:28.574Z,98.11
2022-08-01T04:02:27.826Z,97.41
2022-08-01T04:03:27.853Z,97.50
2022-08-01T04:04:28.617Z,97.50
2022-08-01T04:05:27.910Z,97.00
2022-08-01T04:06:28.717Z,97.31
2022-08-01T04:07:27.941Z,97.31
2022-08-01T04:08:30.077Z,97.11
2022-08-01T04:09:27.816Z,97.31
2022-08-01T04:10:28.689Z,96.80
2022-08-01T04:11:27.866Z,97.41
2022-08-01T04:12:27.754Z,97.31
2022-08-01T04:13:29.373Z,97.41
2022-08-01T04:14:27.770Z,97.11
2022-08-01T04:15:27.657Z,97.31
2022-08-01T04:16:27.637Z,97.31
2022-08-01T04:17:27.636Z,97.41
2022-08-01T04:18:27.626Z,97.31
2022-08-01T04:19:27.610Z,97.20
2022-08-01T04:20:27.634Z,97.06
2022-08-01T04:21:27.603Z,97.16
2022-08-01T04:22:27.646Z,96.70
2022-08-01T04:23:27.551Z,96.91
2022-08-01T04:24:27.522Z,96.91
2022-08-01T04:25:27.602Z,97.00
2022-08-01T04:26:27.535Z,96.50
2022-08-01T04:27:49.762Z,96.91
2022-08-01T04:28:28.540Z,96.80
2022-08-01T04:29:27.530Z,97.11
2022-08-01T04:30:27.515Z,97.20
2022-08-01T04:31:27.503Z,96.80
2022-08-01T04:32:27.521Z,96.80
2022-08-01T04:33:27.462Z,97.20
2022-08-01T04:34:27.423Z,96.41
2022-08-01T04:36:02.019Z,97.00
2022-08-01T04:36:28.500Z,96.86
2022-08-01T04:37:27.439Z,96.50
2022-08-01T04:38:27.483Z,96.26
2022-08-01T04:39:27.403Z,96.36
2022-08-01T04:40:27.370Z,96.00
2022-08-01T04:41:28.176Z,96.06
2022-08-01T04:42:33.296Z,96.41
2022-08-01T04:43:28.356Z,95.05
2022-08-01T04:44:30.987Z,95.65
2022-08-01T04:45:29.332Z,95.20
2022-08-01T04:46:27.300Z,95.05
2022-08-01T04:47:27.340Z,94.95
2022-08-01T04:48:28.232Z,94.55
2022-08-01T04:49:27.353Z,94.05
2022-08-01T04:50:27.310Z,94.15
2022-08-01T04:51:27.284Z,94.39
2022-08-01T04:52:27.264Z,93.39
2022-08-01T04:53:27.248Z,94.25
2022-08-01T04:54:28.220Z,94.70
2022-08-01T04:55:27.234Z,93.99
2022-08-01T04:56:27.228Z,94.20
2022-08-01T04:57:27.201Z,94.39
2022-08-01T04:58:27.186Z,94.20
2022-08-01T04:59:27.162Z,94.20
2022-08-01T05:00:27.156Z,94.49
2022-08-01T05:01:27.233Z,94.39
2022-08-01T05:02:27.148Z,95.00
2022-08-01T05:03:27.146Z,94.59
2022-08-01T05:04:27.100Z,94.59
2022-08-01T05:05:27.088Z,94.95
2022-08-01T05:06:27.103Z,94.70
2022-08-01T05:07:27.095Z,94.39
2022-08-01T05:08:27.077Z,95.00
2022-08-01T05:09:30.994Z,94.09
2022-08-01T05:10:28.122Z,94.70
2022-08-01T05:11:27.064Z,94.79
2022-08-01T05:12:27.057Z,95.00
2022-08-01T05:13:27.043Z,95.00
2022-08-01T05:14:27.029Z,94.90
2022-08-01T05:15:26.975Z,95.00
2022-08-01T05:16:27.004Z,95.00
2022-08-01T05:17:26.979Z,95.20
2022-08-01T05:18:28.191Z,95.00
2022-08-01T05:19:26.976Z,95.30
2022-08-01T05:20:26.984Z,94.59
2022-08-01T05:21:26.939Z,94.90
2022-08-01T05:22:26.891Z,94.59
2022-08-01T05:23:42.200Z,95.10
2022-08-01T05:24:27.905Z,95.10
2022-08-01T05:25:30.429Z,95.30
2022-08-01T05:26:27.956Z,94.39
2022-08-01T05:27:26.894Z,94.79
2022-08-01T05:28:27.961Z,94.70
2022-08-01T05:29:26.841Z,94.94
2022-08-01T05:30:26.828Z,94.74
2022-08-01T05:31:26.808Z,94.54
2022-08-01T05:32:26.800Z,95.04
2022-08-01T05:33:26.815Z,94.74
2022-08-01T05:34:26.756Z,94.54
2022-08-01T05:35:47.592Z,94.44
2022-08-01T05:36:27.853Z,94.64
2022-08-01T05:37:26.737Z,94.74
2022-08-01T05:38:26.785Z,94.44
2022-08-01T05:39:26.722Z,94.44
2022-08-01T05:40:26.711Z,94.64
2022-08-01T05:41:26.694Z,94.74
2022-08-01T05:42:26.730Z,95.24
2022-08-01T05:43:28.878Z,95.44
2022-08-01T05:44:27.872Z,95.14
2022-08-01T05:45:26.668Z,95.04
2022-08-01T05:46:27.504Z,94.84
2022-08-01T05:47:26.623Z,94.64
2022-08-01T05:48:26.630Z,94.74
2022-08-01T05:49:26.778Z,94.39
2022-08-01T05:50:26.588Z,94.54
2022-08-01T05:51:26.603Z,94.84
2022-08-01T05:52:26.608Z,94.84
2022-08-01T05:53:26.558Z,95.10
2022-08-01T05:54:27.264Z,95.00
2022-08-01T05:55:26.560Z,95.10
2022-08-01T05:56:30.468Z,95.20
2022-08-01T05:57:28.527Z,94.49
2022-08-01T05:58:26.517Z,94.59
2022-08-01T05:59:26.571Z,94.79
2022-08-01T06:00:26.490Z,94.20
2022-08-01T06:01:26.453Z,94.29
2022-08-01T06:02:26.536Z,94.39
2022-08-01T06:03:26.466Z,94.39
2022-08-01T06:04:26.442Z,94.44
2022-08-01T06:05:26.464Z,94.04
2022-08-01T06:06:26.490Z,94.44
2022-08-01T06:07:26.443Z,94.64
2022-08-01T06:08:26.427Z,94.34
2022-08-01T06:09:26.391Z,94.29
2022-08-01T06:10:26.407Z,94.44
2022-08-01T06:11:26.403Z,94.64
2022-08-01T06:12:26.355Z,94.84
2022-08-01T06:13:26.407Z,95.14
2022-08-01T06:14:26.324Z,94.24
2022-08-01T06:15:26.314Z,94.74
2022-08-01T06:16:26.293Z,94.94
2022-08-01T06:17:26.290Z,94.64
2022-08-01T06:18:26.260Z,95.04
2022-08-01T06:19:26.254Z,95.00
2022-08-01T06:20:26.281Z,94.09
2022-08-01T06:21:26.236Z,94.70
2022-08-01T06:22:26.243Z,94.20
2022-08-01T06:23:32.031Z,94.20
2022-08-01T06:24:27.210Z,93.44
2022-08-01T06:25:26.199Z,93.74
2022-08-01T06:26:26.214Z,92.84
2022-08-01T06:27:26.177Z,92.94
2022-08-01T06:28:26.234Z,93.74
2022-08-01T06:29:26.184Z,92.84
2022-08-01T06:30:26.239Z,92.84
2022-08-01T06:31:29.316Z,92.84
2022-08-01T06:32:27.964Z,92.65
2022-08-01T06:33:26.128Z,92.65
2022-08-01T06:34:26.108Z,93.30
2022-08-01T06:35:26.162Z,92.14
2022-08-01T06:36:26.107Z,91.80
2022-08-01T06:37:26.087Z,92.14
2022-08-01T06:38:26.086Z,92.24
2022-08-01T06:39:26.247Z,92.24
2022-08-01T06:40:26.027Z,92.54
2022-08-01T06:41:26.039Z,92.74
2022-08-01T06:42:26.031Z,93.24
2022-08-01T06:43:26.014Z,92.60
2022-08-01T06:44:26.007Z,92.10
2022-08-01T06:45:25.971Z,92.10
2022-08-01T06:46:30.173Z,91.50
2022-08-01T06:47:26.955Z,91.80
2022-08-01T06:48:25.927Z,91.45
2022-08-01T06:49:25.986Z,90.95
2022-08-01T06:50:25.920Z,90.55
2022-08-01T06:51:25.888Z,90.11
2022-08-01T06:52:25.932Z,90.00
2022-08-01T06:53:25.875Z,89.11
2022-08-01T06:54:25.916Z,88.76
2022-08-01T06:55:25.860Z,89.30
2022-08-01T06:56:25.864Z,89.00
2022-08-01T06:57:25.915Z,89.90
2022-08-01T06:58:30.838Z,89.20
2022-08-01T06:59:26.800Z,89.61
2022-08-01T07:00:25.804Z,90.00
2022-08-01T07:01:26.778Z,88.70
2022-08-01T07:02:25.821Z,88.70
2022-08-01T07:03:25.800Z,88.64
2022-08-01T07:04:25.768Z,88.14
2022-08-01T07:05:25.735Z,88.44
2022-08-01T07:06:25.815Z,88.64
2022-08-01T07:07:25.805Z,88.84
2022-08-01T07:08:25.725Z,88.29
2022-08-01T07:09:25.735Z,88.68
2022-08-01T07:10:25.686Z,88.89
2022-08-01T07:11:25.673Z,89.09
2022-08-01T07:12:25.709Z,88.89
2022-08-01T07:13:25.668Z,88.68
2022-08-01T07:14:26.632Z,89.39
2022-08-01T07:15:25.625Z,88.89
2022-08-01T07:16:25.633Z,88.59
2022-08-01T07:17:25.637Z,88.89
2022-08-01T07:18:26.317Z,88.64
2022-08-01T07:19:25.584Z,88.24
2022-08-01T07:20:25.581Z,88.95
2022-08-01T07:21:40.073Z,88.24
2022-08-01T07:22:26.585Z,88.34
2022-08-01T07:23:33.943Z,87.74
2022-08-01T07:24:26.867Z,88.14
2022-08-01T07:25:25.539Z,88.34
2022-08-01T07:26:25.548Z,88.34
2022-08-01T07:27:26.311Z,87.84
2022-08-01T07:28:25.534Z,87.74
2022-08-01T07:29:25.476Z,87.74
2022-08-01T07:30:25.489Z,88.75
2022-08-01T07:31:28.349Z,88.84
2022-08-01T07:32:27.446Z,89.11
2022-08-01T07:33:25.428Z,89.11
2022-08-01T07:34:25.421Z,88.90
2022-08-01T07:35:25.447Z,88.30
2022-08-01T07:36:25.395Z,88.70
2022-08-01T07:37:48.044Z,88.90
2022-08-01T07:38:26.405Z,88.30
2022-08-01T07:39:25.430Z,88.46
2022-08-01T07:40:25.349Z,88.06
2022-08-01T07:41:53.277Z,86.96
2022-08-01T07:42:26.398Z,86.76
2022-08-01T07:43:25.402Z,86.66
2022-08-01T07:44:25.354Z,87.16
2022-08-01T07:45:25.369Z,86.96
2022-08-01T07:46:26.114Z,86.32
2022-08-01T07:47:25.334Z,86.52
2022-08-01T07:48:25.391Z,86.11
2022-08-01T07:49:25.317Z,85.71
2022-08-01T07:50:25.245Z,86.01
2022-08-01T07:51:25.226Z,86.01
2022-08-01T07:52:25.246Z,86.52
2022-08-01T07:53:25.250Z,85.31
2022-08-01T07:54:33.494Z,85.57
2022-08-01T07:55:26.199Z,85.47
2022-08-01T07:56:25.158Z,85.27
2022-08-01T07:57:25.193Z,84.17
2022-08-01T07:58:25.180Z,84.27
2022-08-01T07:59:26.315Z,84.17
2022-08-01T08:00:25.162Z,83.67
2022-08-01T08:01:25.181Z,84.47
2022-08-01T08:02:25.186Z,83.57
2022-08-01T08:03:25.099Z,82.67
2022-08-01T08:04:25.099Z,83.27
2022-08-01T08:05:58.611Z,83.97
2022-08-01T08:06:26.098Z,82.91
2022-08-01T08:07:25.030Z,83.21
2022-08-01T08:08:25.040Z,84.11
2022-08-01T08:09:25.027Z,84.71
2022-08-01T08:10:25.000Z,84.25
2022-08-01T08:11:24.979Z,83.35
2022-08-01T08:12:28.339Z,84.35
2022-08-01T08:13:24.996Z,85.01
2022-08-01T08:14:32.411Z,84.81
2022-08-01T08:15:25.988Z,84.21
2022-08-01T08:16:24.947Z,84.41
2022-08-01T08:17:24.913Z,84.71
2022-08-01T08:18:24.941Z,84.41
2022-08-01T08:19:38.415Z,84.71
2022-08-01T08:20:25.969Z,84.41
2022-08-01T08:21:24.881Z,85.11
2022-08-01T08:22:24.873Z,85.51
2022-08-01T08:23:41.526Z,85.82
2022-08-01T08:24:27.316Z,85.21
2022-08-01T08:25:26.836Z,85.82
2022-08-01T08:26:24.840Z,85.57
2022-08-01T08:27:24.843Z,85.47
2022-08-01T08:28:28.126Z,84.47
2022-08-01T08:29:25.824Z,83.87
2022-08-01T08:30:25.620Z,83.87
2022-08-01T08:31:52.621Z,84.43
2022-08-01T08:32:25.775Z,84.77
2022-08-01T08:33:24.756Z,84.83
2022-08-01T08:34:24.743Z,85.33
2022-08-01T08:35:53.378Z,84.39
2022-08-01T08:36:31.254Z,84.59
2022-08-01T08:37:24.717Z,83.99
2022-08-01T08:38:28.507Z,82.65
2022-08-01T08:39:24.706Z,83.09
2022-08-01T08:40:24.704Z,82.59
2022-08-01T08:41:24.687Z,81.99
2022-08-01T08:42:24.692Z,82.99
2022-08-01T08:43:24.694Z,81.49
2022-08-01T08:44:24.620Z,81.89
2022-08-01T08:45:29.676Z,80.99
2022-08-01T08:46:28.365Z,81.19
2022-08-01T08:47:24.593Z,81.69
2022-08-01T08:48:27.630Z,81.59
2022-08-01T08:49:24.667Z,81.19
2022-08-01T08:50:24.546Z,80.73
2022-08-01T08:51:24.641Z,81.33
2022-08-01T08:52:24.528Z,81.69
2022-08-01T08:53:24.517Z,81.89
2022-08-01T08:54:29.067Z,81.89
2022-08-01T08:55:25.526Z,79.89
2022-08-01T08:56:24.522Z,80.29
2022-08-01T08:57:24.481Z,80.19
2022-08-01T08:58:30.452Z,80.19
2022-08-01T08:59:26.481Z,79.29
2022-08-01T09:00:24.453Z,79.99
2022-08-01T09:01:24.437Z,79.49
2022-08-01T09:02:24.406Z,80.19
2022-08-01T09:03:24.461Z,80.45
2022-08-01T09:04:25.851Z,79.96
2022-08-01T09:05:24.383Z,78.81
2022-08-01T09:06:24.474Z,78.72
2022-08-01T09:07:24.406Z,78.52
2022-08-01T09:08:24.368Z,78.78
2022-08-01T09:09:25.106Z,78.38
2022-08-01T09:10:24.335Z,76.58
2022-08-01T09:11:25.233Z,76.08
2022-08-01T09:12:24.327Z,76.15
2022-08-01T09:13:24.302Z,76.45
2022-08-01T09:14:24.318Z,76.65
2022-08-01T09:15:24.299Z,74.75
2022-08-01T09:16:24.258Z,75.85
2022-08-01T09:17:24.284Z,75.65
2022-08-01T09:18:24.256Z,75.25
2022-08-01T09:19:39.882Z,74.75
2022-08-01T09:20:25.346Z,75.15
2022-08-01T09:21:24.218Z,74.45
2022-08-01T09:22:24.237Z,74.98
2022-08-01T09:23:24.215Z,75.89
2022-08-01T09:24:30.631Z,76.45
2022-08-01T09:25:29.807Z,76.04
2022-08-01T09:26:25.192Z,76.15
2022-08-01T09:27:24.629Z,74.62
2022-08-01T09:28:24.247Z,75.01
2022-08-01T09:29:37.720Z,74.81
2022-08-01T09:30:26.204Z,75.15
2022-08-01T09:31:24.140Z,75.15
2022-08-01T09:32:25.980Z,75.11
2022-08-01T09:33:24.155Z,72.81
2022-08-01T09:34:24.085Z,74.44
2022-08-01T09:35:24.108Z,73.74
2022-08-01T09:36:26.170Z,72.71
2022-08-01T09:37:24.339Z,73.01
2022-08-01T09:38:24.078Z,72.08
2022-08-01T09:39:24.037Z,72.18
2022-08-01T09:40:24.013Z,70.79
2022-08-01T09:41:24.041Z,70.89
2022-08-01T09:42:29.034Z,70.68
2022-08-01T09:43:25.006Z,71.22
2022-08-01T09:44:34.858Z,70.32
2022-08-01T09:45:25.003Z,70.32
2022-08-01T09:46:23.937Z,69.92
2022-08-01T09:47:25.497Z,69.32
2022-08-01T09:48:28.785Z,69.46
2022-08-01T09:49:23.980Z,69.96
2022-08-01T09:50:23.899Z,69.96
2022-08-01T09:51:59.839Z,70.45
2022-08-01T09:52:25.830Z,70.72
2022-08-01T09:53:29.734Z,70.49
2022-08-01T09:54:25.760Z,70.59
2022-08-01T09:55:23.859Z,70.49
2022-08-01T09:56:23.863Z,69.09
2022-08-01T09:57:23.840Z,69.20
2022-08-01T09:58:23.830Z,69.29
2022-08-01T09:59:26.428Z,68.90
2022-08-01T10:00:44.412Z,69.56
2022-08-01T10:01:25.812Z,69.49
2022-08-01T10:02:23.779Z,67.90
2022-08-01T10:03:24.047Z,69.32
2022-08-01T10:04:23.745Z,69.02
2022-08-01T10:05:24.742Z,69.62
2022-08-01T10:06:24.997Z,69.86
2022-08-01T10:07:27.728Z,70.59
2022-08-01T10:08:24.717Z,68.86
2022-08-01T10:09:23.709Z,68.66
2022-08-01T10:10:29.049Z,68.26
2022-08-01T10:11:36.157Z,68.03
2022-08-01T10:12:24.738Z,68.73
2022-08-01T10:13:23.690Z,69.02
2022-08-01T10:14:23.697Z,69.36
2022-08-01T10:15:23.660Z,69.26
2022-08-01T10:16:24.628Z,68.90
2022-08-01T10:17:23.621Z,70.39
2022-08-01T10:18:26.388Z,69.46
2022-08-01T10:19:23.602Z,70.62
2022-08-01T10:20:30.404Z,67.73
2022-08-01T10:21:54.686Z,67.43
2022-08-01T10:22:24.569Z,69.02
2022-08-01T10:23:23.557Z,68.00
2022-08-01T10:24:24.576Z,67.10
2022-08-01T10:25:42.289Z,67.43
2022-08-01T10:26:24.634Z,67.93
2022-08-01T10:27:36.389Z,66.34
2022-08-01T10:28:24.537Z,65.61
2022-08-01T10:29:44.971Z,65.61
2022-08-01T10:30:24.667Z,64.58
2022-08-01T10:31:30.623Z,64.98
2022-08-01T10:32:24.606Z,65.55
2022-08-01T10:33:50.352Z,66.31
2022-08-01T10:34:24.618Z,64.62
2022-08-01T10:35:46.916Z,64.95
2022-08-01T10:36:25.362Z,65.15
2022-08-01T10:37:23.442Z,64.65
2022-08-01T10:38:23.434Z,64.98
2022-08-01T10:39:23.377Z,65.31
2022-08-01T10:40:31.392Z,65.64
2022-08-01T10:41:25.360Z,65.24
2022-08-01T10:42:23.347Z,65.27
2022-08-01T10:43:23.350Z,65.47
2022-08-01T10:44:23.310Z,66.00
2022-08-01T10:45:23.359Z,67.10
2022-08-01T10:46:23.394Z,66.80
2022-08-01T10:47:27.025Z,65.54
2022-08-01T10:48:25.391Z,65.18
2022-08-01T10:49:23.343Z,64.98
2022-08-01T10:50:26.184Z,64.65
2022-08-01T10:51:27.089Z,64.75
2022-08-01T10:52:24.246Z,65.08
2022-08-01T10:53:30.830Z,65.08
2022-08-01T10:54:25.240Z,64.36
2022-08-01T10:55:24.135Z,62.86
2022-08-01T10:56:26.992Z,63.56
2022-08-01T10:57:23.354Z,61.57
2022-08-01T10:58:23.253Z,62.63
2022-08-01T10:59:49.186Z,62.34
2022-08-01T11:00:25.288Z,60.61
2022-08-01T11:01:25.703Z,61.48
2022-08-01T11:02:23.196Z,60.19
2022-08-01T11:03:41.424Z,59.36
2022-08-01T11:04:25.187Z,60.06
2022-08-01T11:05:24.044Z,58.04
2022-08-01T11:06:23.169Z,59.34
2022-08-01T11:07:25.730Z,57.95
2022-08-01T11:08:23.095Z,59.21
2022-08-01T11:09:23.090Z,59.78
2022-08-01T11:10:24.459Z,61.59
2022-08-01T11:11:23.095Z,62.29
2022-08-01T11:12:25.033Z,61.99
2022-08-01T11:13:23.051Z,61.89
2022-08-01T11:14:26.452Z,62.98
2022-08-01T11:15:30.271Z,62.88
2022-08-01T11:16:24.287Z,62.58
2022-08-01T11:17:24.006Z,61.89
2022-08-01T11:18:27.301Z,61.89
2022-08-01T11:19:24.846Z,61.10
2022-08-01T11:20:23.682Z,61.59
2022-08-01T11:21:57.525Z,60.99
2022-08-01T11:22:25.489Z,62.29
2022-08-01T11:23:24.762Z,60.57
2022-08-01T11:24:22.964Z,60.96
2022-08-01T11:26:05.707Z,60.44
2022-08-01T11:26:29.276Z,60.94
2022-08-01T11:27:24.004Z,61.21
2022-08-01T11:28:29.993Z,61.70
2022-08-01T11:29:24.872Z,59.79
2022-08-01T11:30:22.866Z,58.30
2022-08-01T11:31:22.795Z,58.80
2022-08-01T11:32:22.785Z,55.13
2022-08-01T11:33:22.815Z,57.34
2022-08-01T11:34:22.810Z,57.97
2022-08-01T11:35:22.797Z,59.05
2022-08-01T11:36:42.792Z,59.97
2022-08-01T11:37:24.758Z,59.25
2022-08-01T11:38:23.771Z,58.16
2022-08-01T11:39:22.784Z,59.15
2022-08-01T11:40:22.918Z,59.97
2022-08-01T11:41:36.906Z,60.00
2022-08-01T11:42:23.781Z,59.28
2022-08-01T11:43:22.704Z,59.94
2022-08-01T11:44:25.012Z,58.65
2022-08-01T11:45:22.654Z,57.86
2022-08-01T11:46:22.712Z,59.22
2022-08-01T11:47:22.709Z,58.11
2022-08-01T11:48:27.837Z,58.20
2022-08-01T11:49:22.732Z,57.88
2022-08-01T11:50:22.655Z,57.29
2022-08-01T11:51:25.784Z,55.90
2022-08-01T11:52:23.591Z,56.67
2022-08-01T11:53:22.596Z,57.09
2022-08-01T11:54:35.801Z,57.61
2022-08-01T11:55:23.563Z,57.04
2022-08-01T11:56:23.555Z,58.03
2022-08-01T11:57:23.665Z,57.04
2022-08-01T11:58:29.475Z,56.85
2022-08-01T11:59:23.503Z,57.57
2022-08-01T12:00:22.522Z,58.75
2022-08-01T12:01:22.508Z,57.74
2022-08-01T12:02:30.126Z,57.71
2022-08-01T12:03:33.051Z,56.79
2022-08-01T12:04:23.439Z,56.99
2022-08-01T12:05:24.979Z,56.40
2022-08-01T12:06:22.475Z,55.70
2022-08-01T12:07:22.423Z,55.41
2022-08-01T12:08:22.486Z,54.69
2022-08-01T12:09:22.404Z,54.69
2022-08-01T12:10:22.398Z,53.70
2022-08-01T12:11:22.410Z,55.58
2022-08-01T12:12:22.404Z,55.38
2022-08-01T12:13:22.387Z,55.08
2022-08-01T12:14:22.352Z,53.89
2022-08-01T12:15:22.426Z,54.12
2022-08-01T12:16:23.897Z,54.96
2022-08-01T12:17:23.352Z,55.56
2022-08-01T12:18:22.337Z,55.88
2022-08-01T12:19:22.324Z,57.76
2022-08-01T12:20:22.351Z,56.28
2022-08-01T12:21:22.329Z,56.60
2022-08-01T12:22:22.243Z,54.94
2022-08-01T12:23:22.267Z,57.62
2022-08-01T12:24:22.221Z,58.12
2022-08-01T12:25:22.755Z,58.61
2022-08-01T12:26:28.578Z,58.94
2022-08-01T12:27:23.760Z,60.63
2022-08-01T12:28:22.209Z,59.66
2022-08-01T12:29:22.197Z,59.66
2022-08-01T12:30:22.202Z,59.17
2022-08-01T12:31:22.215Z,58.97
2022-08-01T12:32:27.860Z,58.77
2022-08-01T12:33:23.207Z,60.49
2022-08-01T12:34:22.163Z,59.47
2022-08-01T12:35:22.175Z,59.07
2022-08-01T12:36:22.612Z,59.36
2022-08-01T12:37:22.164Z,59.27
2022-08-01T12:38:22.096Z,59.17
2022-08-01T12:39:22.099Z,59.39
2022-08-01T12:40:22.081Z,59.19
2022-08-01T12:41:22.044Z,61.31
2022-08-01T12:42:22.036Z,62.53
2022-08-01T12:43:28.400Z,64.25
2022-08-01T12:44:23.012Z,64.91
2022-08-01T12:45:21.974Z,65.81
2022-08-01T12:46:23.008Z,65.18
2022-08-01T12:47:22.012Z,65.21
2022-08-01T12:48:22.004Z,67.00
2022-08-01T12:49:21.987Z,67.13
2022-08-01T12:50:22.096Z,65.67
2022-08-01T12:51:21.942Z,65.97
2022-08-01T12:52:21.892Z,66.07